Time;durP1;ratioP1;P1;durP2;ratioP2;P2;SDS_P1;SDS_P2;PMS_P1;PMS_P2;Temp;Humidity;BMP_temperature;BMP_pressure;BME280_temperature;BME280_humidity;BME280_pressure;Samples;Min_cycle;Max_cycle;Signal;HPM_P1;HPM_P2
2022/06/30 00:00:28;;;;;;;;;;;;;;;18.17;100.00;99422.13;1709369;84;20123;-69
2022/06/30 00:02:55;;;;;;;;;;;;;;;18.17;100.00;99433.25;1709204;84;20113;-69
2022/06/30 00:05:21;;;;;;;;;;;;;;;18.14;100.00;99430.62;1709902;84;21113;-69
2022/06/30 00:07:48;;;;;;;;;;;;;;;18.13;100.00;99422.66;1710005;84;20450;-69
2022/06/30 00:10:15;;;;;;;;;;;;;;;18.14;100.00;99418.12;1709838;84;20144;-69
2022/06/30 00:12:41;;;;;;;;;;;;;;;18.13;100.00;99399.05;1709868;84;20095;-69
2022/06/30 00:15:09;;;;;;;;;;;;;;;18.09;100.00;99390.64;1709898;84;20099;-69
2022/06/30 00:17:36;;;;;;;;;;;;;;;18.06;100.00;99373.91;1709824;84;21098;-69
2022/06/30 00:20:03;;;;;;;;;;;;;;;18.06;100.00;99370.55;1709781;83;20154;-69
2022/06/30 00:22:30;;;;;;;;;;;;;;;18.07;100.00;99368.58;1709759;84;20084;-69
2022/06/30 00:24:56;;;;;;;;;;;;;;;18.05;100.00;99362.59;1709962;84;20164;-69
2022/06/30 00:27:23;;;;;;;;;;;;;;;18.02;100.00;99360.55;1709831;84;20120;-69
2022/06/30 00:29:49;;;;;;;;;;;;;;;18.02;100.00;99359.16;1710108;84;21102;-69
2022/06/30 00:32:16;;;;;;;;;;;;;;;18.00;100.00;99351.20;1709781;84;20096;-69
2022/06/30 00:34:42;;;;;;;;;;;;;;;18.01;100.00;99352.00;1709800;84;20469;-69
2022/06/30 00:37:08;;;;;;;;;;;;;;;18.00;100.00;99352.58;1710024;84;20345;-69
2022/06/30 00:39:36;;;;;;;;;;;;;;;18.01;100.00;99349.22;1709913;84;20096;-69
2022/06/30 00:42:05;;;;;;;;;;;;;;;18.01;100.00;99349.22;1709811;84;21775;-69
2022/06/30 00:44:31;;;;;;;;;;;;;;;17.97;100.00;99346.37;1709761;84;20124;-69
2022/06/30 00:46:58;;;;;;;;;;;;;;;17.97;100.00;99351.13;1709833;84;20107;-69
2022/06/30 00:49:24;;;;;;;;;;;;;;;17.96;100.00;99358.66;1709721;84;20095;-69
2022/06/30 00:51:51;;;;;;;;;;;;;;;17.94;100.00;99354.65;1709901;84;20430;-69
2022/06/30 00:54:17;;;;;;;;;;;;;;;17.94;100.00;99351.87;1710032;84;21474;-69
2022/06/30 00:56:46;;;;;;;;;;;;;;;17.92;100.00;99347.27;1664686;84;20099;-69
2022/06/30 00:59:13;;;;;;;;;;;;;;;17.88;100.00;99347.23;1710130;84;20139;-69
2022/06/30 01:01:41;;;;;;;;;;;;;;;17.84;100.00;99338.04;1709728;83;20075;-69
2022/06/30 01:04:08;;;;;;;;;;;;;;;17.77;100.00;99335.12;1718246;83;20099;-69
2022/06/30 01:06:34;;;;;;;;;;;;;;;17.74;100.00;99331.12;1731112;83;21142;-69
2022/06/30 01:09:01;;;;;;;;;;;;;;;17.68;100.00;99334.56;1731140;81;20091;-69
2022/06/30 01:14:12;;;;;;;;;;;;;;;17.64;100.00;99320.59;1731411;83;20134;-69
2022/06/30 01:16:39;;;;;;;;;;;;;;;17.63;100.00;99316.79;1731132;81;20166;-69
2022/06/30 01:19:06;;;;;;;;;;;;;;;17.59;100.00;99315.34;1731462;83;21143;-69
2022/06/30 01:21:33;;;;;;;;;;;;;;;17.54;100.00;99312.86;1731142;83;20130;-69
2022/06/30 01:24:00;;;;;;;;;;;;;;;17.51;100.00;99310.82;1710393;83;20154;-69
2022/06/30 01:26:29;;;;;;;;;;;;;;;17.47;100.00;99315.50;1731122;83;20095;-69
2022/06/30 01:28:55;;;;;;;;;;;;;;;17.42;100.00;99315.80;1731142;83;20083;-69
2022/06/30 01:31:23;;;;;;;;;;;;;;;17.37;100.00;99314.13;1731211;81;21208;-69
2022/06/30 01:33:49;;;;;;;;;;;;;;;17.34;100.00;99316.83;1731369;83;20094;-69
2022/06/30 01:36:17;;;;;;;;;;;;;;;17.32;100.00;99319.19;1731209;83;20095;-69
2022/06/30 01:38:45;;;;;;;;;;;;;;;17.28;100.00;99333.58;1731167;83;38096;-69
2022/06/30 01:41:12;;;;;;;;;;;;;;;17.26;100.00;99344.23;1731170;83;20425;-69
2022/06/30 01:43:39;;;;;;;;;;;;;;;17.25;100.00;99343.43;1731089;81;21786;-69
2022/06/30 01:46:06;;;;;;;;;;;;;;;17.27;100.00;99356.94;1731057;83;20083;-69
2022/06/30 01:48:32;;;;;;;;;;;;;;;17.30;100.00;99370.08;1731437;83;20421;-69
2022/06/30 01:50:58;;;;;;;;;;;;;;;17.30;100.00;99360.37;1731127;81;20087;-69
2022/06/30 01:53:24;;;;;;;;;;;;;;;17.30;100.00;99369.50;1731167;83;20119;-70
2022/06/30 01:55:51;;;;;;;;;;;;;;;17.30;100.00;99378.41;1731106;83;21652;-69
2022/06/30 01:58:17;;;;;;;;;;;;;;;17.29;100.00;99379.57;1731109;83;20402;-69
2022/06/30 02:00:44;;;;;;;;;;;;;;;17.26;100.00;99381.69;1731206;83;20107;-69
2022/06/30 02:03:10;;;;;;;;;;;;;;;17.24;100.00;99372.34;1731187;83;20110;-69
2022/06/30 02:05:37;;;;;;;;;;;;;;;17.23;100.00;99380.44;1712403;83;20108;-69
2022/06/30 02:08:04;;;;;;;;;;;;;;;17.22;100.00;99386.35;1709431;84;21530;-69
2022/06/30 02:10:31;;;;;;;;;;;;;;;17.22;100.00;99396.06;1709604;84;20096;-69
2022/06/30 02:12:57;;;;;;;;;;;;;;;17.20;100.00;99393.65;1709405;84;20242;-69
2022/06/30 02:15:28;;;;;;;;;;;;;;;17.20;100.00;99390.07;1709455;84;20131;-69
2022/06/30 02:17:53;;;;;;;;;;;;;;;17.20;100.00;99385.33;1709658;84;20207;-69
2022/06/30 02:20:26;;;;;;;;;;;;;;;17.21;100.00;99393.06;1709522;84;21517;-69
2022/06/30 02:22:55;;;;;;;;;;;;;;;17.22;100.00;99388.54;1709355;84;20127;-69
2022/06/30 02:25:22;;;;;;;;;;;;;;;17.22;100.00;99394.09;1709372;84;20103;-69
2022/06/30 02:27:49;;;;;;;;;;;;;;;17.22;100.00;99394.09;1709382;84;20193;-69
2022/06/30 02:30:16;;;;;;;;;;;;;;;17.25;100.00;99398.91;1709471;84;20119;-69
2022/06/30 02:32:43;;;;;;;;;;;;;;;17.28;100.00;99397.38;1709377;84;21156;-69
2022/06/30 02:35:10;;;;;;;;;;;;;;;17.32;100.00;99399.65;1709363;84;20195;-69
2022/06/30 02:37:36;;;;;;;;;;;;;;;17.35;100.00;99404.44;1709368;84;20123;-69
2022/06/30 02:40:03;;;;;;;;;;;;;;;17.39;100.00;99403.93;1709702;84;20586;-69
2022/06/30 02:42:30;;;;;;;;;;;;;;;17.46;100.00;99403.50;1709366;84;20176;-69
2022/06/30 02:44:56;;;;;;;;;;;;;;;17.52;100.00;99408.17;1709410;84;21601;-69
2022/06/30 02:47:33;;;;;;;;;;;;;;;17.55;100.00;99402.47;1711673;82;20530;-69
2022/06/30 02:50:03;;;;;;;;;;;;;;;17.60;100.00;99406.34;1732847;82;20117;-69
2022/06/30 02:52:31;;;;;;;;;;;;;;;17.62;100.00;99397.88;1739002;82;20591;-70
2022/06/30 02:54:58;;;;;;;;;;;;;;;17.65;100.00;99399.95;1738835;82;20142;-69
2022/06/30 02:57:25;;;;;;;;;;;;;;;17.71;100.00;99410.17;1738777;82;21113;-69
2022/06/30 02:59:53;;;;;;;;;;;;;;;17.75;100.00;99416.59;1738812;82;20393;-69
2022/06/30 03:02:20;;;;;;;;;;;;;;;17.76;100.00;99430.70;1738786;82;20097;-70
2022/06/30 03:04:46;;;;;;;;;;;;;;;17.77;100.00;99437.27;1746589;81;20100;-70
2022/06/30 03:07:13;;;;;;;;;;;;;;;17.77;100.00;99444.21;1761458;81;20089;-69
2022/06/30 03:09:39;;;;;;;;;;;;;;;17.78;100.00;99452.77;1761453;81;22016;-69
2022/06/30 03:12:06;;;;;;;;;;;;;;;17.80;100.00;99449.03;1761542;81;20112;-69
2022/06/30 03:14:32;;;;;;;;;;;;;;;17.84;100.00;99456.63;1761399;81;20481;-69
2022/06/30 03:16:59;;;;;;;;;;;;;;;17.86;100.00;99458.46;1761355;81;20100;-69
2022/06/30 03:19:26;;;;;;;;;;;;;;;17.87;100.00;99459.48;1756377;81;20155;-69
2022/06/30 03:21:55;;;;;;;;;;;;;;;17.91;100.00;99465.88;1748074;81;21145;-69
2022/06/30 03:24:21;;;;;;;;;;;;;;;17.96;100.00;99472.53;1761326;81;20496;-69
2022/06/30 03:26:48;;;;;;;;;;;;;;;18.04;100.00;99469.30;1761628;81;20104;-69
2022/06/30 03:29:15;;;;;;;;;;;;;;;18.09;100.00;99473.98;1761651;81;20112;-70
2022/06/30 03:31:41;;;;;;;;;;;;;;;18.12;100.00;99475.22;1761491;81;20116;-70
2022/06/30 03:34:07;;;;;;;;;;;;;;;18.13;100.00;99474.85;1761589;81;21496;-69
2022/06/30 03:36:34;;;;;;;;;;;;;;;18.13;100.00;99465.71;1761287;81;20458;-70
2022/06/30 03:39:00;;;;;;;;;;;;;;;18.14;100.00;99470.09;1761350;81;20422;-69
2022/06/30 03:41:27;;;;;;;;;;;;;;;18.17;100.00;99469.36;1761646;81;20080;-69
2022/06/30 03:43:53;;;;;;;;;;;;;;;18.22;100.00;99467.67;1761362;81;20139;-70
2022/06/30 03:46:20;;;;;;;;;;;;;;;18.26;100.00;99464.38;1761384;81;21791;-69
2022/06/30 03:48:47;;;;;;;;;;;;;;;18.29;100.00;99471.97;1761260;81;20422;-69
2022/06/30 03:51:14;;;;;;;;;;;;;;;18.33;100.00;99468.67;1743279;81;20119;-69
2022/06/30 03:53:40;;;;;;;;;;;;;;;18.34;100.00;99463.33;1761340;81;20577;-69
2022/06/30 03:56:07;;;;;;;;;;;;;;;18.35;100.00;99464.94;1761687;81;20080;-69
2022/06/30 03:58:34;;;;;;;;;;;;;;;18.37;100.00;99472.91;1761345;81;21509;-69
2022/06/30 04:01:01;;;;;;;;;;;;;;;18.39;100.00;99469.17;1761196;81;20129;-70
2022/06/30 04:03:27;;;;;;;;;;;;;;;18.37;100.00;99469.55;1761296;81;20112;-69
2022/06/30 04:05:54;;;;;;;;;;;;;;;18.34;100.00;99471.67;1761179;81;20454;-69
2022/06/30 04:08:20;;;;;;;;;;;;;;;18.33;100.00;99472.84;1761446;81;20112;-69
2022/06/30 04:10:46;;;;;;;;;;;;;;;18.34;100.00;99470.87;1761632;81;21780;-69
2022/06/30 04:13:16;;;;;;;;;;;;;;;18.36;100.00;99467.94;1761388;81;20105;-69
2022/06/30 04:15:43;;;;;;;;;;;;;;;18.37;100.00;99459.02;1761290;81;20489;-69
2022/06/30 04:18:09;;;;;;;;;;;;;;;18.40;100.00;99456.30;1761375;81;20116;-69
2022/06/30 04:20:36;;;;;;;;;;;;;;;18.43;100.00;99463.09;1755393;81;20116;-69
2022/06/30 04:23:02;;;;;;;;;;;;;;;18.47;100.00;99466.73;1749520;81;21128;-69
2022/06/30 04:25:28;;;;;;;;;;;;;;;18.49;100.00;99467.95;1761628;81;20080;-70
2022/06/30 04:27:58;;;;;;;;;;;;;;;18.55;100.00;99472.61;1761687;81;20076;-70
2022/06/30 04:33:08;;;;;;;;;;;;;;;18.65;100.00;99472.02;1761437;81;20459;-69
2022/06/30 04:35:35;;;;;;;;;;;;;;;18.73;100.00;99474.34;1761320;81;21825;-69
2022/06/30 04:38:03;;;;;;;;;;;;;;;18.81;100.00;99481.63;1761332;81;20454;-69
2022/06/30 04:43:14;;;;;;;;;;;;;;;18.99;100.00;99479.13;1761386;81;21119;-69
2022/06/30 04:45:41;;;;;;;;;;;;;;;19.06;100.00;99475.84;1761653;81;20116;-70
2022/06/30 04:48:08;;;;;;;;;;;;;;;19.12;100.00;99480.50;1761331;81;21129;-69
2022/06/30 04:50:35;;;;;;;;;;;;;;;19.21;100.00;99475.47;1761230;81;20132;-69
2022/06/30 04:53:01;;;;;;;;;;;;;;;19.31;100.00;99480.98;1761553;81;20080;-70
2022/06/30 04:55:28;;;;;;;;;;;;;;;19.38;100.00;99472.73;1761347;81;20112;-69
2022/06/30 04:57:54;;;;;;;;;;;;;;;19.41;100.00;99474.77;1761594;81;20153;-69
2022/06/30 05:00:21;;;;;;;;;;;;;;;19.43;100.00;99471.02;1761351;81;21525;-69
2022/06/30 05:02:47;;;;;;;;;;;;;;;19.48;100.00;99474.86;1761167;81;20148;-69
2022/06/30 05:05:13;;;;;;;;;;;;;;;19.59;100.00;99482.00;1761164;81;20144;-69
2022/06/30 05:07:39;;;;;;;;;;;;;;;19.70;100.00;99479.54;1761598;81;20092;-71
2022/06/30 05:10:07;;;;;;;;;;;;;;;19.78;100.00;99482.63;1761387;81;20116;-70
2022/06/30 05:12:33;;;;;;;;;;;;;;;19.89;100.00;99481.38;1752542;81;21098;-70
2022/06/30 05:15:00;;;;;;;;;;;;;;;19.98;100.00;99479.09;1761091;81;20141;-69
2022/06/30 05:17:27;;;;;;;;;;;;;;;20.07;100.00;99474.03;1731127;83;20424;-69
2022/06/30 05:19:54;;;;;;;;;;;;;;;20.18;100.00;99477.52;1731100;83;20404;-69
2022/06/30 05:22:20;;;;;;;;;;;;;;;20.26;100.00;99473.01;1731095;83;20448;-70
2022/06/30 05:27:31;;;;;;;;;;;;;;;20.51;100.00;99479.46;1731123;83;20110;-70
2022/06/30 05:29:57;;;;;;;;;;;;;;;20.68;100.00;99482.42;1731376;83;20118;-69
2022/06/30 05:32:24;;;;;;;;;;;;;;;20.81;100.00;99482.09;1735733;81;20407;-75
2022/06/30 05:34:50;;;;;;;;;;;;;;;20.91;100.00;99480.79;1729780;83;20083;-75
2022/06/30 05:37:17;;;;;;;;;;;;;;;21.02;100.00;99483.66;1754593;81;21097;-86
2022/06/30 05:39:43;;;;;;;;;;;;;;;21.10;100.00;99481.94;1739136;81;20154;-70
2022/06/30 05:42:09;;;;;;;;;;;;;;;21.20;100.00;99485.19;1731295;83;20449;-70
2022/06/30 05:44:36;;;;;;;;;;;;;;;21.28;100.00;99485.48;1731582;83;20083;-70
2022/06/30 05:47:03;;;;;;;;;;;;;;;21.34;100.00;99481.94;1729110;83;20186;-71
2022/06/30 05:49:30;;;;;;;;;;;;;;;21.42;100.00;99485.54;1730832;83;20511;-70
2022/06/30 05:51:57;;;;;;;;;;;;;;;21.49;100.00;99477.20;1731472;83;20119;-69
2022/06/30 05:54:23;;;;;;;;;;;;;;;21.58;100.00;99479.64;1731545;83;20467;-70
2022/06/30 05:56:50;;;;;;;;;;;;;;;21.72;100.00;99478.33;1730381;83;20388;-75
2022/06/30 05:59:16;;;;;;;;;;;;;;;21.79;100.00;99473.36;1745260;81;20239;-75
2022/06/30 06:01:43;;;;;;;;;;;;;;;21.88;100.00;99476.00;1748812;81;21120;-75
2022/06/30 06:04:09;;;;;;;;;;;;;;;21.99;100.00;99472.62;1743625;81;20430;-77
2022/06/30 06:06:36;;;;;;;;;;;;;;;22.07;100.00;99467.29;1715925;83;20108;-76
2022/06/30 06:09:03;;;;;;;;;;;;;;;22.17;100.00;99472.70;1727423;81;20910;-77
2022/06/30 06:11:30;;;;;;;;;;;;;;;22.26;100.00;99482.12;1738875;82;20073;-78
2022/06/30 06:13:57;;;;;;;;;;;;;;;22.33;100.00;99479.34;1738560;82;21143;-70
2022/06/30 06:16:23;;;;;;;;;;;;;;;22.42;100.00;99485.95;1717252;82;20273;-76
2022/06/30 06:18:50;;;;;;;;;;;;;;;22.54;100.00;99483.55;1722142;82;20131;-76
2022/06/30 06:21:17;;;;;;;;;;;;;;;22.66;100.00;99483.77;1720656;81;20095;-78
2022/06/30 06:23:44;;;;;;;;;;;;;;;22.78;100.00;99484.77;1738637;82;20149;-79
2022/06/30 06:26:10;;;;;;;;;;;;;;;22.84;100.00;99495.00;1711162;82;21190;-77
2022/06/30 06:31:22;;;;;;;;;;;;;;;23.01;100.00;99490.00;1709271;84;20155;-70
2022/06/30 06:33:48;;;;;;;;;;;;;;;23.12;100.00;99485.77;1709200;84;20116;-75
2022/06/30 06:36:16;;;;;;;;;;;;;;;23.19;100.00;99492.77;1709117;84;20083;-87
2022/06/30 06:38:43;;;;;;;;;;;;;;;23.30;100.00;99497.16;1709117;84;21614;-86
2022/06/30 06:41:09;;;;;;;;;;;;;;;23.44;100.00;99491.33;1709259;84;20096;-87
2022/06/30 06:43:36;;;;;;;;;;;;;;;23.53;100.00;99488.33;1708949;84;20429;-77
2022/06/30 06:46:03;;;;;;;;;;;;;;;23.63;100.00;99492.31;1709134;84;20116;-76
2022/06/30 06:48:29;;;;;;;;;;;;;;;23.74;100.00;99491.64;1709321;84;20092;-75
2022/06/30 06:50:55;;;;;;;;;;;;;;;23.84;100.00;99489.41;1709151;84;21150;-74
2022/06/30 06:53:22;;;;;;;;;;;;;;;23.95;100.00;99486.56;1709194;84;20210;-70
2022/06/30 06:55:48;;;;;;;;;;;;;;;24.03;100.00;99481.13;1720968;82;20077;-77
2022/06/30 06:58:15;;;;;;;;;;;;;;;24.12;100.00;99487.09;1710084;82;20081;-74
2022/06/30 07:00:42;;;;;;;;;;;;;;;24.19;100.00;99481.44;1728569;82;20142;-75
2022/06/30 07:03:08;;;;;;;;;;;;;;;24.29;100.00;99486.19;1733804;82;21748;-74
2022/06/30 07:05:35;;;;;;;;;;;;;;;24.36;100.00;99491.77;1724238;82;20128;-72
2022/06/30 07:08:01;;;;;;;;;;;;;;;24.43;100.00;99491.53;1712924;82;20087;-73
2022/06/30 07:10:31;;;;;;;;;;;;;;;24.54;100.00;99496.47;1738938;82;20181;-74
2022/06/30 07:12:59;;;;;;;;;;;;;;;24.67;100.00;99489.16;1674577;84;20152;-76
2022/06/30 07:15:32;;;;;;;;;;;;;;;24.74;97.23;99481.30;1713341;83;21108;-79
2022/06/30 07:17:59;;;;;;;;;;;;;;;24.80;92.30;99489.47;1703586;83;20094;-78
2022/06/30 07:20:25;;;;;;;;;;;;;;;24.84;95.38;99486.80;1704348;84;20094;-73
2022/06/30 07:22:58;;;;;;;;;;;;;;;24.93;96.51;99489.94;1704184;82;20141;-80
2022/06/30 07:25:26;;;;;;;;;;;;;;;25.09;96.53;99487.23;1703945;84;20118;-76
2022/06/30 07:27:57;;;;;;;;;;;;;;;25.20;94.17;99485.13;1706510;82;21192;-79
2022/06/30 07:30:33;;;;;;;;;;;;;;;25.33;91.89;99483.39;1745562;82;20084;-83
2022/06/30 07:33:03;;;;;;;;;;;;;;;25.41;90.69;99480.70;1742279;81;20123;-82
2022/06/30 07:35:30;;;;;;;;;;;;;;;25.51;89.94;99480.36;1742011;81;20144;-79
2022/06/30 07:38:01;;;;;;;;;;;;;;;25.63;85.19;99479.22;1727809;82;20156;-75
2022/06/30 07:40:28;;;;;;;;;;;;;;;25.73;83.52;99478.94;1709422;83;20986;-73
2022/06/30 07:42:55;;;;;;;;;;;;;;;25.82;84.35;99484.06;1709940;82;20145;-74
2022/06/30 07:45:26;;;;;;;;;;;;;;;25.94;85.94;99487.73;1708982;84;20089;-76
2022/06/30 07:47:56;;;;;;;;;;;;;;;26.08;84.34;99490.94;1709698;82;20411;-73
2022/06/30 07:50:32;;;;;;;;;;;;;;;26.17;81.16;99483.58;1686966;84;20102;-72
2022/06/30 07:53:04;;;;;;;;;;;;;;;26.18;71.02;99482.97;1709147;82;21135;-73
2022/06/30 07:55:31;;;;;;;;;;;;;;;26.18;74.53;99475.94;1707903;84;20097;-74
2022/06/30 07:58:06;;;;;;;;;;;;;;;26.21;77.69;99481.52;1709539;82;20118;-74
2022/06/30 08:00:32;;;;;;;;;;;;;;;26.31;77.34;99478.40;1709065;82;20678;-74
2022/06/30 08:03:05;;;;;;;;;;;;;;;26.42;76.39;99474.83;1707394;82;20091;-75
2022/06/30 08:05:38;;;;;;;;;;;;;;;26.56;74.23;99472.41;1709414;84;21835;-74
2022/06/30 08:08:10;;;;;;;;;;;;;;;26.56;70.11;99472.41;1709630;82;20083;-72
2022/06/30 08:10:39;;;;;;;;;;;;;;;26.46;65.51;99477.59;1709125;84;20119;-72
2022/06/30 08:13:05;;;;;;;;;;;;;;;26.33;69.81;99483.61;1716260;82;20108;-72
2022/06/30 08:15:41;;;;;;;;;;;;;;;26.31;69.81;99479.81;1709456;84;20076;-75
2022/06/30 08:18:14;;;;;;;;;;;;;;;26.38;67.02;99478.30;1700243;82;20542;-73
2022/06/30 08:20:47;;;;;;;;;;;;;;;26.56;72.49;99476.63;1726227;82;20079;-73
2022/06/30 08:23:10;;;;;;;;;;;;;;;26.81;69.92;99476.21;1718706;82;20413;-72
2022/06/30 08:25:38;;;;;;;;;;;;;;;27.09;71.83;99476.38;1709449;83;20119;-74
2022/06/30 08:28:05;;;;;;;;;;;;;;;27.43;67.88;99476.94;1709365;82;20219;-73
2022/06/30 08:30:35;;;;;;;;;;;;;;;27.78;69.15;99476.06;1729600;81;20117;-77
2022/06/30 08:33:02;;;;;;;;;;;;;;;28.13;62.00;99469.67;1731838;80;20089;-74
2022/06/30 08:35:31;;;;;;;;;;;;;;;28.41;62.22;99469.66;1727603;80;20102;-74
2022/06/30 08:37:58;;;;;;;;;;;;;;;28.62;63.38;99480.28;1731918;80;20113;-74
2022/06/30 08:43:14;;;;;;;;;;;;;;;28.68;63.12;99470.84;1723763;80;21152;-74
2022/06/30 08:45:44;;;;;;;;;;;;;;;28.67;61.77;99478.34;1717937;80;20151;-76
2022/06/30 08:48:16;;;;;;;;;;;;;;;28.64;61.82;99477.20;1721277;80;20445;-74
2022/06/30 08:50:45;;;;;;;;;;;;;;;28.69;63.35;99480.11;1720507;80;20119;-72
2022/06/30 08:53:17;;;;;;;;;;;;;;;28.82;59.88;99483.24;1736624;80;20084;-73
2022/06/30 08:55:44;;;;;;;;;;;;;;;28.97;59.11;99477.20;1728262;80;21899;-77
2022/06/30 08:58:12;;;;;;;;;;;;;;;29.07;60.70;99481.80;1754449;80;20142;-74
2022/06/30 09:00:39;;;;;;;;;;;;;;;29.16;58.95;99474.90;1725406;80;20081;-74
2022/06/30 09:03:08;;;;;;;;;;;;;;;29.15;59.82;99473.31;1717029;82;20637;-76
2022/06/30 09:05:42;;;;;;;;;;;;;;;29.15;58.60;99471.90;1709402;82;20178;-74
2022/06/30 09:08:12;;;;;;;;;;;;;;;29.20;59.83;99468.53;1723200;81;20129;-72
2022/06/30 09:10:47;;;;;;;;;;;;;;;29.31;58.75;99463.39;1760451;80;20457;-73
2022/06/30 09:13:18;;;;;;;;;;;;;;;29.37;59.29;99464.44;1739346;81;20425;-70
2022/06/30 09:15:48;;;;;;;;;;;;;;;29.50;55.21;99465.91;1750132;81;20158;-70
2022/06/30 09:18:26;;;;;;;;;;;;;;;29.67;57.73;99466.66;1750203;81;20480;-73
2022/06/30 09:20:59;;;;;;;;;;;;;;;29.90;57.45;99460.11;1750592;81;21138;-73
2022/06/30 09:23:35;;;;;;;;;;;;;;;30.10;56.59;99459.93;1735711;81;20425;-74
2022/06/30 09:26:01;;;;;;;;;;;;;;;30.27;54.10;99457.01;1756411;81;20112;-77
2022/06/30 09:28:54;;;;;;;;;;;;;;;30.24;53.62;99450.21;1762938;79;20485;-79
2022/06/30 09:31:35;;;;;;;;;;;;;;;30.22;53.20;99454.12;1740236;81;20111;-83
2022/06/30 09:34:19;;;;;;;;;;;;;;;30.29;55.67;99456.73;1757596;80;21117;-79
2022/06/30 09:36:52;;;;;;;;;;;;;;;30.56;55.83;99457.70;1740030;81;20126;-76
2022/06/30 09:39:21;;;;;;;;;;;;;;;30.74;52.60;99447.20;1740504;81;20127;-79
2022/06/30 09:41:50;;;;;;;;;;;;;;;30.69;51.72;99442.91;1750271;81;20088;-77
2022/06/30 09:44:20;;;;;;;;;;;;;;;30.88;52.53;99439.66;1763774;80;20144;-78
2022/06/30 09:47:08;;;;;;;;;;;;;;;31.17;49.93;99443.75;1722574;82;21304;-79
2022/06/30 09:49:44;;;;;;;;;;;;;;;31.16;51.10;99444.37;1720889;81;20135;-79
2022/06/30 09:52:22;;;;;;;;;;;;;;;31.20;53.02;99435.72;1739977;81;20087;-75
2022/06/30 09:54:54;;;;;;;;;;;;;;;31.22;51.85;99431.80;1754697;81;20108;-77
2022/06/30 09:57:22;;;;;;;;;;;;;;;31.34;50.84;99433.00;1739389;80;20112;-78
2022/06/30 10:00:08;;;;;;;;;;;;;;;31.37;51.06;99428.63;1717018;82;20892;-78
2022/06/30 10:02:39;;;;;;;;;;;;;;;31.26;50.81;99433.88;1707048;82;20458;-75
2022/06/30 10:05:07;;;;;;;;;;;;;;;31.24;52.28;99433.55;1707139;84;20454;-77
2022/06/30 10:07:35;;;;;;;;;;;;;;;31.38;52.45;99428.79;1719371;82;20421;-76
2022/06/30 10:10:08;;;;;;;;;;;;;;;31.64;50.37;99425.21;1735911;81;20135;-77
2022/06/30 10:12:35;;;;;;;;;;;;;;;31.91;48.79;99428.07;1740865;80;21086;-78
2022/06/30 10:15:06;;;;;;;;;;;;;;;32.00;48.25;99430.96;1735313;80;20083;-79
2022/06/30 10:17:43;;;;;;;;;;;;;;;31.94;51.08;99429.35;1792149;80;20139;-77
2022/06/30 10:20:13;;;;;;;;;;;;;;;31.85;48.21;99433.55;1792117;80;20596;-76
2022/06/30 10:22:40;;;;;;;;;;;;;;;31.62;50.73;99437.65;1751158;80;20448;-74
2022/06/30 10:25:07;;;;;;;;;;;;;;;31.66;51.80;99431.84;1730650;83;21098;-79
2022/06/30 10:27:33;;;;;;;;;;;;;;;31.70;49.42;99439.63;1730420;83;20159;-76
2022/06/30 10:30:07;;;;;;;;;;;;;;;31.78;50.29;99432.40;1733954;81;20428;-79
2022/06/30 10:32:41;;;;;;;;;;;;;;;31.92;47.97;99431.86;1730556;81;20186;-77
2022/06/30 10:35:19;;;;;;;;;;;;;;;32.11;49.22;99427.08;1730217;83;20094;-81
2022/06/30 10:37:54;;;;;;;;;;;;;;;32.24;49.67;99428.44;1731319;83;21718;-82
2022/06/30 10:40:53;;;;;;;;;;;;;;;32.38;50.75;99432.10;1731005;83;20133;-79
2022/06/30 10:43:21;;;;;;;;;;;;;;;32.42;47.24;99433.55;1730930;81;20082;-78
2022/06/30 10:45:56;;;;;;;;;;;;;;;32.45;48.05;99430.39;1730710;81;20106;-77
2022/06/30 10:48:27;;;;;;;;;;;;;;;32.54;47.75;99435.33;1731211;83;20115;-76
2022/06/30 10:50:56;;;;;;;;;;;;;;;32.49;45.12;99422.52;1734004;81;21213;-77
2022/06/30 10:53:38;;;;;;;;;;;;;;;32.27;44.24;99426.09;1731032;83;20094;-80
2022/06/30 10:56:05;;;;;;;;;;;;;;;32.04;45.17;99426.73;1743844;80;20096;-76
2022/06/30 10:58:31;;;;;;;;;;;;;;;31.94;44.70;99429.98;1748093;80;20094;-75
2022/06/30 11:01:02;;;;;;;;;;;;;;;31.81;47.10;99421.55;1730854;83;20119;-75
2022/06/30 11:03:37;;;;;;;;;;;;;;;31.89;46.28;99419.22;1748290;81;21234;-76
2022/06/30 11:06:11;;;;;;;;;;;;;;;31.94;45.72;99416.58;1730809;81;20118;-77
2022/06/30 11:08:48;;;;;;;;;;;;;;;32.01;47.11;99423.41;1730783;81;20433;-77
2022/06/30 11:11:24;;;;;;;;;;;;;;;32.19;46.93;99429.81;1730745;81;20690;-76
2022/06/30 11:14:04;;;;;;;;;;;;;;;32.42;45.75;99422.81;1731874;83;20095;-76
2022/06/30 11:16:31;;;;;;;;;;;;;;;32.62;46.08;99423.83;1729859;81;21070;-77
2022/06/30 11:19:00;;;;;;;;;;;;;;;32.68;47.02;99416.27;1730178;82;20087;-77
2022/06/30 11:21:31;;;;;;;;;;;;;;;32.58;45.47;99425.39;1731015;81;20102;-76
2022/06/30 11:24:00;;;;;;;;;;;;;;;32.44;45.45;99427.39;1730872;83;20642;-75
2022/06/30 11:29:28;;;;;;;;;;;;;;;31.65;46.53;99420.33;1728015;82;20118;-74
2022/06/30 11:31:59;;;;;;;;;;;;;;;31.24;47.55;99417.95;1730447;81;20190;-76
2022/06/30 11:34:26;;;;;;;;;;;;;;;30.94;48.70;99410.90;1738559;81;20147;-77
2022/06/30 11:36:53;;;;;;;;;;;;;;;30.73;49.01;99420.13;1740468;80;20617;-76
2022/06/30 11:39:20;;;;;;;;;;;;;;;30.59;49.09;99410.09;1742635;80;20089;-77
2022/06/30 11:44:35;;;;;;;;;;;;;;;30.47;50.79;99417.94;1740480;81;20115;-77
2022/06/30 11:47:05;;;;;;;;;;;;;;;30.34;49.72;99425.02;1739504;81;20080;-79
2022/06/30 11:49:46;;;;;;;;;;;;;;;30.37;49.63;99420.48;1759729;81;20640;-72
2022/06/30 11:52:20;;;;;;;;;;;;;;;30.66;49.60;99409.82;1760736;81;20164;-71
2022/06/30 11:54:56;;;;;;;;;;;;;;;31.14;50.00;99410.65;1761132;81;21205;-72
2022/06/30 11:57:38;;;;;;;;;;;;;;;31.58;48.51;99409.24;1760865;81;20132;-73
2022/06/30 12:00:11;;;;;;;;;;;;;;;32.03;46.46;99401.02;1761253;81;20143;-73
2022/06/30 12:02:38;;;;;;;;;;;;;;;32.07;46.72;99408.77;1760530;80;20849;-71
2022/06/30 12:05:09;;;;;;;;;;;;;;;31.87;46.39;99408.34;1759887;81;20116;-72
2022/06/30 12:07:37;;;;;;;;;;;;;;;31.41;46.94;99407.22;1750777;81;21141;-72
2022/06/30 12:10:08;;;;;;;;;;;;;;;30.94;47.25;99412.31;1741562;81;20138;-75
2022/06/30 12:12:37;;;;;;;;;;;;;;;30.65;49.52;99399.73;1743303;81;20088;-75
2022/06/30 12:15:13;;;;;;;;;;;;;;;30.71;50.05;99398.54;1759742;81;20119;-74
2022/06/30 12:17:45;;;;;;;;;;;;;;;31.03;48.28;99392.56;1730369;83;20647;-74
2022/06/30 12:20:13;;;;;;;;;;;;;;;31.41;49.46;99391.00;1761390;80;21175;-78
2022/06/30 12:22:44;;;;;;;;;;;;;;;31.80;45.91;99382.44;1738967;80;20093;-80
2022/06/30 12:25:12;;;;;;;;;;;;;;;32.17;45.65;99385.47;1734028;81;20448;-78
2022/06/30 12:27:44;;;;;;;;;;;;;;;32.26;43.25;99387.59;1707779;82;20118;-80
2022/06/30 12:30:19;;;;;;;;;;;;;;;32.23;44.25;99378.58;1733515;82;20118;-73
2022/06/30 12:32:56;;;;;;;;;;;;;;;32.47;44.05;99376.11;1710254;83;20083;-73
2022/06/30 12:35:29;;;;;;;;;;;;;;;32.67;43.18;99374.27;1730667;81;20425;-73
2022/06/30 12:37:56;;;;;;;;;;;;;;;32.65;43.47;99378.21;1734838;81;20087;-74
2022/06/30 12:40:26;;;;;;;;;;;;;;;32.46;43.21;99380.21;1731535;81;20143;-75
2022/06/30 12:42:55;;;;;;;;;;;;;;;32.04;43.63;99375.63;1750841;81;20455;-76
2022/06/30 12:45:46;;;;;;;;;;;;;;;31.79;45.56;99374.39;1760859;81;21147;-77
2022/06/30 12:48:14;;;;;;;;;;;;;;;31.76;46.08;99373.92;1735290;81;20118;-79
2022/06/30 12:50:44;;;;;;;;;;;;;;;31.76;45.30;99382.44;1731192;83;20130;-75
2022/06/30 12:53:23;;;;;;;;;;;;;;;31.84;45.99;99376.63;1730876;83;20517;-74
2022/06/30 12:56:02;;;;;;;;;;;;;;;32.07;46.31;99374.70;1757693;81;20068;-74
2022/06/30 12:58:44;;;;;;;;;;;;;;;32.34;44.26;99367.58;1761081;81;21199;-80
2022/06/30 13:01:19;;;;;;;;;;;;;;;32.56;44.62;99371.09;1760943;81;20081;-76
2022/06/30 13:04:08;;;;;;;;;;;;;;;32.83;44.96;99367.54;1748553;80;20209;-76
2022/06/30 13:06:39;;;;;;;;;;;;;;;33.05;43.23;99368.16;1749685;80;20135;-76
2022/06/30 13:09:06;;;;;;;;;;;;;;;33.06;43.25;99371.16;1778322;80;20109;-76
2022/06/30 13:11:35;;;;;;;;;;;;;;;33.02;42.50;99372.58;1743047;81;21258;-73